sensor_id;sensor_type;location;lat;lon;timestamp;temperature;humidity
46117;DHT22;32591;48.102;11.772;2023-05-29T00:00:47;13.10;99.90
46117;DHT22;32591;48.102;11.772;2023-05-29T00:03:15;13.00;99.90
46117;DHT22;32591;48.102;11.772;2023-05-29T00:05:43;13.00;99.90
46117;DHT22;32591;48.102;11.772;2023-05-29T00:08:11;13.00;99.90
46117;DHT22;32591;48.102;11.772;2023-05-29T00:10:38;12.90;99.90
46117;DHT22;32591;48.102;11.772;2023-05-29T00:13:05;12.90;99.90
46117;DHT22;32591;48.102;11.772;2023-05-29T00:15:33;12.90;99.90
46117;DHT22;32591;48.102;11.772;2023-05-29T00:18:00;12.80;99.90
46117;DHT22;32591;48.102;11.772;2023-05-29T00:20:27;12.80;99.90
46117;DHT22;32591;48.102;11.772;2023-05-29T00:22:54;12.80;99.90
46117;DHT22;32591;48.102;11.772;2023-05-29T00:25:22;12.70;99.90
46117;DHT22;32591;48.102;11.772;2023-05-29T00:27:49;12.70;99.90
46117;DHT22;32591;48.102;11.772;2023-05-29T00:30:16;12.60;99.90
46117;DHT22;32591;48.102;11.772;2023-05-29T00:32:43;12.60;99.90
46117;DHT22;32591;48.102;11.772;2023-05-29T00:35:11;12.50;99.90
46117;DHT22;32591;48.102;11.772;2023-05-29T00:37:38;12.50;99.90
46117;DHT22;32591;48.102;11.772;2023-05-29T00:40:06;12.40;99.90
46117;DHT22;32591;48.102;11.772;2023-05-29T00:42:36;12.40;99.90
46117;DHT22;32591;48.102;11.772;2023-05-29T00:45:04;12.40;99.90
46117;DHT22;32591;48.102;11.772;2023-05-29T00:47:32;12.30;99.90
46117;DHT22;32591;48.102;11.772;2023-05-29T00:49:59;12.30;99.90
46117;DHT22;32591;48.102;11.772;2023-05-29T00:52:28;12.30;99.90
46117;DHT22;32591;48.102;11.772;2023-05-29T00:54:56;12.30;99.90
46117;DHT22;32591;48.102;11.772;2023-05-29T00:57:26;12.20;99.90
46117;DHT22;32591;48.102;11.772;2023-05-29T00:59:55;12.20;99.90
46117;DHT22;32591;48.102;11.772;2023-05-29T01:02:23;12.20;99.90
46117;DHT22;32591;48.102;11.772;2023-05-29T01:04:50;12.20;99.90
46117;DHT22;32591;48.102;11.772;2023-05-29T01:07:20;12.20;99.90
46117;DHT22;32591;48.102;11.772;2023-05-29T01:09:47;12.20;99.90
46117;DHT22;32591;48.102;11.772;2023-05-29T01:12:23;12.20;99.90
46117;DHT22;32591;48.102;11.772;2023-05-29T01:15:14;12.20;99.90
46117;DHT22;32591;48.102;11.772;2023-05-29T01:17:55;12.10;99.90
46117;DHT22;32591;48.102;11.772;2023-05-29T01:20:40;12.10;99.90
46117;DHT22;32591;48.102;11.772;2023-05-29T01:23:35;12.00;99.90
46117;DHT22;32591;48.102;11.772;2023-05-29T01:26:31;12.00;99.90
46117;DHT22;32591;48.102;11.772;2023-05-29T01:29:06;12.00;99.90
46117;DHT22;32591;48.102;11.772;2023-05-29T01:31:34;12.00;99.90
46117;DHT22;32591;48.102;11.772;2023-05-29T01:34:02;11.90;99.90
46117;DHT22;32591;48.102;11.772;2023-05-29T01:36:29;11.90;99.90
46117;DHT22;32591;48.102;11.772;2023-05-29T01:38:59;11.90;99.90
46117;DHT22;32591;48.102;11.772;2023-05-29T01:41:26;11.80;99.90
46117;DHT22;32591;48.102;11.772;2023-05-29T01:43:56;11.90;99.90
46117;DHT22;32591;48.102;11.772;2023-05-29T01:46:25;11.80;99.90
46117;DHT22;32591;48.102;11.772;2023-05-29T01:48:53;11.70;99.90
46117;DHT22;32591;48.102;11.772;2023-05-29T01:51:20;11.70;99.90
46117;DHT22;32591;48.102;11.772;2023-05-29T01:53:47;11.70;99.90
46117;DHT22;32591;48.102;11.772;2023-05-29T01:56:14;11.70;99.90
46117;DHT22;32591;48.102;11.772;2023-05-29T01:58:42;11.70;99.90
46117;DHT22;32591;48.102;11.772;2023-05-29T02:01:11;11.60;99.90
46117;DHT22;32591;48.102;11.772;2023-05-29T02:03:38;11.60;99.90
46117;DHT22;32591;48.102;11.772;2023-05-29T02:06:05;11.50;99.90
46117;DHT22;32591;48.102;11.772;2023-05-29T02:08:33;11.50;99.90
46117;DHT22;32591;48.102;11.772;2023-05-29T02:11:00;11.50;99.90
46117;DHT22;32591;48.102;11.772;2023-05-29T02:13:27;11.40;99.90
46117;DHT22;32591;48.102;11.772;2023-05-29T02:15:54;11.40;99.90
46117;DHT22;32591;48.102;11.772;2023-05-29T02:18:22;11.40;99.90
46117;DHT22;32591;48.102;11.772;2023-05-29T02:20:49;11.40;99.90
46117;DHT22;32591;48.102;11.772;2023-05-29T02:23:16;11.40;99.90
46117;DHT22;32591;48.102;11.772;2023-05-29T02:25:45;11.30;99.90
46117;DHT22;32591;48.102;11.772;2023-05-29T02:28:12;11.30;99.90
46117;DHT22;32591;48.102;11.772;2023-05-29T02:30:39;11.30;99.90
46117;DHT22;32591;48.102;11.772;2023-05-29T02:33:06;11.20;99.90
46117;DHT22;32591;48.102;11.772;2023-05-29T02:35:35;11.20;99.90
46117;DHT22;32591;48.102;11.772;2023-05-29T02:38:02;11.10;99.90
46117;DHT22;32591;48.102;11.772;2023-05-29T02:40:29;11.10;99.90
46117;DHT22;32591;48.102;11.772;2023-05-29T02:42:56;11.10;99.90
46117;DHT22;32591;48.102;11.772;2023-05-29T02:45:23;11.10;99.90
46117;DHT22;32591;48.102;11.772;2023-05-29T02:47:50;11.00;99.90
46117;DHT22;32591;48.102;11.772;2023-05-29T02:50:17;11.00;99.90
46117;DHT22;32591;48.102;11.772;2023-05-29T02:52:45;10.90;99.90
46117;DHT22;32591;48.102;11.772;2023-05-29T02:55:15;10.90;99.90
46117;DHT22;32591;48.102;11.772;2023-05-29T02:57:42;10.80;99.90
46117;DHT22;32591;48.102;11.772;2023-05-29T03:00:10;10.80;99.90
46117;DHT22;32591;48.102;11.772;2023-05-29T03:02:39;10.80;99.90
46117;DHT22;32591;48.102;11.772;2023-05-29T03:05:06;10.90;99.90
46117;DHT22;32591;48.102;11.772;2023-05-29T03:07:35;10.80;99.90
46117;DHT22;32591;48.102;11.772;2023-05-29T03:10:03;10.70;99.90
46117;DHT22;32591;48.102;11.772;2023-05-29T03:12:31;10.70;99.90
46117;DHT22;32591;48.102;11.772;2023-05-29T03:14:58;10.70;99.90
46117;DHT22;32591;48.102;11.772;2023-05-29T03:17:24;10.70;99.90
46117;DHT22;32591;48.102;11.772;2023-05-29T03:19:51;10.70;99.90
46117;DHT22;32591;48.102;11.772;2023-05-29T03:22:18;10.70;99.90
46117;DHT22;32591;48.102;11.772;2023-05-29T03:24:45;10.70;99.90
46117;DHT22;32591;48.102;11.772;2023-05-29T03:27:14;10.60;99.90
46117;DHT22;32591;48.102;11.772;2023-05-29T03:29:41;10.60;99.90
46117;DHT22;32591;48.102;11.772;2023-05-29T03:32:08;10.50;99.90
46117;DHT22;32591;48.102;11.772;2023-05-29T03:34:35;10.50;99.90
46117;DHT22;32591;48.102;11.772;2023-05-29T03:37:02;10.60;99.90
46117;DHT22;32591;48.102;11.772;2023-05-29T03:39:29;10.60;99.90
46117;DHT22;32591;48.102;11.772;2023-05-29T03:41:56;10.50;99.90
46117;DHT22;32591;48.102;11.772;2023-05-29T03:44:25;10.60;99.90
46117;DHT22;32591;48.102;11.772;2023-05-29T03:46:52;10.60;99.90
46117;DHT22;32591;48.102;11.772;2023-05-29T03:49:19;10.60;99.90
46117;DHT22;32591;48.102;11.772;2023-05-29T03:51:46;10.60;99.90
46117;DHT22;32591;48.102;11.772;2023-05-29T03:54:13;10.60;99.90
46117;DHT22;32591;48.102;11.772;2023-05-29T03:56:40;10.60;99.90
46117;DHT22;32591;48.102;11.772;2023-05-29T03:59:07;10.60;99.90
46117;DHT22;32591;48.102;11.772;2023-05-29T04:01:35;10.60;99.90
46117;DHT22;32591;48.102;11.772;2023-05-29T04:04:02;10.60;99.90
46117;DHT22;32591;48.102;11.772;2023-05-29T04:06:29;10.60;99.90
46117;DHT22;32591;48.102;11.772;2023-05-29T04:08:56;10.60;99.90
46117;DHT22;32591;48.102;11.772;2023-05-29T04:11:23;10.60;99.90
46117;DHT22;32591;48.102;11.772;2023-05-29T04:13:50;10.70;99.90
46117;DHT22;32591;48.102;11.772;2023-05-29T04:16:17;10.70;99.90
46117;DHT22;32591;48.102;11.772;2023-05-29T04:18:46;10.70;99.90
46117;DHT22;32591;48.102;11.772;2023-05-29T04:21:13;10.70;99.90
46117;DHT22;32591;48.102;11.772;2023-05-29T04:23:40;10.80;99.90
46117;DHT22;32591;48.102;11.772;2023-05-29T04:26:07;10.80;99.90
46117;DHT22;32591;48.102;11.772;2023-05-29T04:28:34;10.80;99.90
46117;DHT22;32591;48.102;11.772;2023-05-29T04:31:02;10.80;99.90
46117;DHT22;32591;48.102;11.772;2023-05-29T04:33:31;10.80;99.90
46117;DHT22;32591;48.102;11.772;2023-05-29T04:35:59;11.00;99.90
46117;DHT22;32591;48.102;11.772;2023-05-29T04:38:29;11.00;99.90
46117;DHT22;32591;48.102;11.772;2023-05-29T04:40:57;11.00;99.90
46117;DHT22;32591;48.102;11.772;2023-05-29T04:43:24;11.00;99.90
46117;DHT22;32591;48.102;11.772;2023-05-29T04:45:52;11.00;99.90
46117;DHT22;32591;48.102;11.772;2023-05-29T04:48:19;11.10;99.90
46117;DHT22;32591;48.102;11.772;2023-05-29T04:50:46;11.10;99.90
46117;DHT22;32591;48.102;11.772;2023-05-29T04:53:15;11.20;99.90
46117;DHT22;32591;48.102;11.772;2023-05-29T04:55:42;11.30;99.90
46117;DHT22;32591;48.102;11.772;2023-05-29T04:58:09;11.40;99.90
46117;DHT22;32591;48.102;11.772;2023-05-29T05:00:37;11.50;99.90
46117;DHT22;32591;48.102;11.772;2023-05-29T05:03:05;11.50;99.90
46117;DHT22;32591;48.102;11.772;2023-05-29T05:05:32;11.60;99.90
46117;DHT22;32591;48.102;11.772;2023-05-29T05:07:59;11.70;99.90
46117;DHT22;32591;48.102;11.772;2023-05-29T05:10:27;11.80;99.90
46117;DHT22;32591;48.102;11.772;2023-05-29T05:12:54;11.90;99.90
46117;DHT22;32591;48.102;11.772;2023-05-29T05:15:21;12.00;99.90
46117;DHT22;32591;48.102;11.772;2023-05-29T05:17:48;12.20;99.90
46117;DHT22;32591;48.102;11.772;2023-05-29T05:20:15;12.20;99.90
46117;DHT22;32591;48.102;11.772;2023-05-29T05:22:42;12.40;99.90
46117;DHT22;32591;48.102;11.772;2023-05-29T05:25:10;12.50;99.90
46117;DHT22;32591;48.102;11.772;2023-05-29T05:27:38;12.60;99.90
46117;DHT22;32591;48.102;11.772;2023-05-29T05:30:07;12.60;99.90
46117;DHT22;32591;48.102;11.772;2023-05-29T05:32:34;12.70;99.90
46117;DHT22;32591;48.102;11.772;2023-05-29T05:35:02;12.80;99.90
46117;DHT22;32591;48.102;11.772;2023-05-29T05:37:29;12.90;99.90
46117;DHT22;32591;48.102;11.772;2023-05-29T05:39:56;13.00;99.90
46117;DHT22;32591;48.102;11.772;2023-05-29T05:42:25;13.10;99.90
46117;DHT22;32591;48.102;11.772;2023-05-29T05:44:54;13.10;99.90
46117;DHT22;32591;48.102;11.772;2023-05-29T05:47:21;13.30;99.90
46117;DHT22;32591;48.102;11.772;2023-05-29T05:49:48;13.50;99.90
46117;DHT22;32591;48.102;11.772;2023-05-29T05:52:16;13.50;99.90
46117;DHT22;32591;48.102;11.772;2023-05-29T05:54:44;13.70;99.90
46117;DHT22;32591;48.102;11.772;2023-05-29T05:57:11;13.80;99.90
46117;DHT22;32591;48.102;11.772;2023-05-29T05:59:38;14.00;99.90
46117;DHT22;32591;48.102;11.772;2023-05-29T06:02:07;14.10;99.90
46117;DHT22;32591;48.102;11.772;2023-05-29T06:04:34;14.20;99.90
46117;DHT22;32591;48.102;11.772;2023-05-29T06:07:01;14.30;99.90
46117;DHT22;32591;48.102;11.772;2023-05-29T06:09:28;14.50;99.90
46117;DHT22;32591;48.102;11.772;2023-05-29T06:11:55;14.60;99.90
46117;DHT22;32591;48.102;11.772;2023-05-29T06:14:22;14.70;99.90
46117;DHT22;32591;48.102;11.772;2023-05-29T06:16:49;14.90;99.90
46117;DHT22;32591;48.102;11.772;2023-05-29T06:19:18;15.00;99.90
46117;DHT22;32591;48.102;11.772;2023-05-29T06:21:46;15.10;99.90
46117;DHT22;32591;48.102;11.772;2023-05-29T06:24:13;15.20;99.90
46117;DHT22;32591;48.102;11.772;2023-05-29T06:26:40;15.30;99.90
46117;DHT22;32591;48.102;11.772;2023-05-29T06:29:07;15.30;99.90
46117;DHT22;32591;48.102;11.772;2023-05-29T06:31:34;15.40;99.90
46117;DHT22;32591;48.102;11.772;2023-05-29T06:34:01;15.30;99.90
46117;DHT22;32591;48.102;11.772;2023-05-29T06:36:29;15.40;99.90
46117;DHT22;32591;48.102;11.772;2023-05-29T06:38:58;15.50;99.90
46117;DHT22;32591;48.102;11.772;2023-05-29T06:41:25;15.70;99.90
46117;DHT22;32591;48.102;11.772;2023-05-29T06:43:52;15.70;99.90
46117;DHT22;32591;48.102;11.772;2023-05-29T06:46:19;15.90;99.90
46117;DHT22;32591;48.102;11.772;2023-05-29T06:48:46;16.00;99.90
46117;DHT22;32591;48.102;11.772;2023-05-29T06:51:12;16.20;99.90
46117;DHT22;32591;48.102;11.772;2023-05-29T06:53:41;16.20;99.90
46117;DHT22;32591;48.102;11.772;2023-05-29T06:56:08;16.30;99.90
46117;DHT22;32591;48.102;11.772;2023-05-29T06:58:35;16.40;99.90
46117;DHT22;32591;48.102;11.772;2023-05-29T07:01:02;16.50;99.90
46117;DHT22;32591;48.102;11.772;2023-05-29T07:03:29;16.60;99.90
46117;DHT22;32591;48.102;11.772;2023-05-29T07:05:56;16.60;99.90
46117;DHT22;32591;48.102;11.772;2023-05-29T07:08:24;16.90;99.90
46117;DHT22;32591;48.102;11.772;2023-05-29T07:10:53;17.10;99.90
46117;DHT22;32591;48.102;11.772;2023-05-29T07:13:20;17.20;99.90
46117;DHT22;32591;48.102;11.772;2023-05-29T07:15:48;17.50;99.90
46117;DHT22;32591;48.102;11.772;2023-05-29T07:18:15;17.60;99.90
46117;DHT22;32591;48.102;11.772;2023-05-29T07:20:42;17.80;99.90
46117;DHT22;32591;48.102;11.772;2023-05-29T07:23:09;17.90;99.80
46117;DHT22;32591;48.102;11.772;2023-05-29T07:25:36;18.00;99.90
46117;DHT22;32591;48.102;11.772;2023-05-29T07:28:04;18.00;99.00
46117;DHT22;32591;48.102;11.772;2023-05-29T07:30:31;18.10;99.50
46117;DHT22;32591;48.102;11.772;2023-05-29T07:32:58;18.20;99.20
46117;DHT22;32591;48.102;11.772;2023-05-29T07:35:25;18.30;99.40
46117;DHT22;32591;48.102;11.772;2023-05-29T07:37:53;18.30;98.90
46117;DHT22;32591;48.102;11.772;2023-05-29T07:40:20;18.40;98.60
46117;DHT22;32591;48.102;11.772;2023-05-29T07:42:47;18.50;98.80
46117;DHT22;32591;48.102;11.772;2023-05-29T07:45:16;18.50;98.90
46117;DHT22;32591;48.102;11.772;2023-05-29T07:47:43;18.40;99.70
46117;DHT22;32591;48.102;11.772;2023-05-29T07:50:10;18.40;99.90
46117;DHT22;32591;48.102;11.772;2023-05-29T07:52:38;18.50;99.90
46117;DHT22;32591;48.102;11.772;2023-05-29T07:55:05;18.50;99.90
46117;DHT22;32591;48.102;11.772;2023-05-29T07:57:33;18.60;99.70
46117;DHT22;32591;48.102;11.772;2023-05-29T08:00:00;18.80;99.90
46117;DHT22;32591;48.102;11.772;2023-05-29T08:02:32;18.90;99.60
46117;DHT22;32591;48.102;11.772;2023-05-29T08:04:59;19.00;99.90
46117;DHT22;32591;48.102;11.772;2023-05-29T08:07:27;19.10;99.40
46117;DHT22;32591;48.102;11.772;2023-05-29T08:09:54;19.00;99.20
46117;DHT22;32591;48.102;11.772;2023-05-29T08:12:22;19.00;99.50
46117;DHT22;32591;48.102;11.772;2023-05-29T08:14:49;19.00;99.70
46117;DHT22;32591;48.102;11.772;2023-05-29T08:17:16;19.00;99.00
46117;DHT22;32591;48.102;11.772;2023-05-29T08:19:44;19.10;99.90
46117;DHT22;32591;48.102;11.772;2023-05-29T08:22:13;19.40;98.70
46117;DHT22;32591;48.102;11.772;2023-05-29T08:24:41;19.60;98.20
46117;DHT22;32591;48.102;11.772;2023-05-29T08:27:08;19.90;97.80
46117;DHT22;32591;48.102;11.772;2023-05-29T08:29:35;19.90;98.10
46117;DHT22;32591;48.102;11.772;2023-05-29T08:32:04;20.10;97.20
46117;DHT22;32591;48.102;11.772;2023-05-29T08:34:31;20.20;96.70
46117;DHT22;32591;48.102;11.772;2023-05-29T08:37:00;20.40;96.70
46117;DHT22;32591;48.102;11.772;2023-05-29T08:39:27;20.50;96.50
46117;DHT22;32591;48.102;11.772;2023-05-29T08:41:59;20.70;96.20
46117;DHT22;32591;48.102;11.772;2023-05-29T08:44:33;20.80;95.30
46117;DHT22;32591;48.102;11.772;2023-05-29T08:47:03;20.90;95.10
46117;DHT22;32591;48.102;11.772;2023-05-29T08:49:37;20.90;94.70
46117;DHT22;32591;48.102;11.772;2023-05-29T08:52:12;20.90;94.90
46117;DHT22;32591;48.102;11.772;2023-05-29T08:54:40;20.80;94.70
46117;DHT22;32591;48.102;11.772;2023-05-29T08:57:09;20.70;94.80
46117;DHT22;32591;48.102;11.772;2023-05-29T08:59:39;20.70;95.10
46117;DHT22;32591;48.102;11.772;2023-05-29T09:02:09;20.80;95.00
46117;DHT22;32591;48.102;11.772;2023-05-29T09:04:37;20.70;95.20
46117;DHT22;32591;48.102;11.772;2023-05-29T09:07:04;20.80;95.50
46117;DHT22;32591;48.102;11.772;2023-05-29T09:09:36;20.80;94.70
46117;DHT22;32591;48.102;11.772;2023-05-29T09:12:04;21.00;94.80
46117;DHT22;32591;48.102;11.772;2023-05-29T09:14:35;21.20;93.20
46117;DHT22;32591;48.102;11.772;2023-05-29T09:17:03;21.20;91.70
46117;DHT22;32591;48.102;11.772;2023-05-29T09:19:32;21.20;91.10
46117;DHT22;32591;48.102;11.772;2023-05-29T09:22:01;21.50;91.20
46117;DHT22;32591;48.102;11.772;2023-05-29T09:24:29;21.80;90.40
46117;DHT22;32591;48.102;11.772;2023-05-29T09:26:59;21.90;88.80
46117;DHT22;32591;48.102;11.772;2023-05-29T09:29:26;21.90;90.30
46117;DHT22;32591;48.102;11.772;2023-05-29T09:31:53;22.10;90.20
46117;DHT22;32591;48.102;11.772;2023-05-29T09:34:23;22.30;90.70
46117;DHT22;32591;48.102;11.772;2023-05-29T09:36:52;22.30;90.10
46117;DHT22;32591;48.102;11.772;2023-05-29T09:39:19;22.20;89.90
46117;DHT22;32591;48.102;11.772;2023-05-29T09:41:46;22.20;90.40
46117;DHT22;32591;48.102;11.772;2023-05-29T09:44:15;22.20;87.40
46117;DHT22;32591;48.102;11.772;2023-05-29T09:46:42;22.30;89.10
46117;DHT22;32591;48.102;11.772;2023-05-29T09:49:12;22.50;83.80
46117;DHT22;32591;48.102;11.772;2023-05-29T09:51:42;22.60;81.30
46117;DHT22;32591;48.102;11.772;2023-05-29T09:54:14;22.50;80.60
46117;DHT22;32591;48.102;11.772;2023-05-29T09:56:42;22.50;80.20
46117;DHT22;32591;48.102;11.772;2023-05-29T09:59:12;22.70;79.80
46117;DHT22;32591;48.102;11.772;2023-05-29T10:01:42;22.90;76.70
46117;DHT22;32591;48.102;11.772;2023-05-29T10:04:10;22.80;76.70
46117;DHT22;32591;48.102;11.772;2023-05-29T10:06:42;22.50;75.60
46117;DHT22;32591;48.102;11.772;2023-05-29T10:09:12;22.40;75.20
46117;DHT22;32591;48.102;11.772;2023-05-29T10:11:43;22.40;75.40
46117;DHT22;32591;48.102;11.772;2023-05-29T10:14:14;22.70;74.60
46117;DHT22;32591;48.102;11.772;2023-05-29T10:16:47;22.80;76.20
46117;DHT22;32591;48.102;11.772;2023-05-29T10:19:19;22.70;74.70
46117;DHT22;32591;48.102;11.772;2023-05-29T10:21:54;22.80;75.70
46117;DHT22;32591;48.102;11.772;2023-05-29T10:24:22;23.00;74.20
46117;DHT22;32591;48.102;11.772;2023-05-29T10:26:52;23.30;73.30
46117;DHT22;32591;48.102;11.772;2023-05-29T10:29:23;23.30;73.10
46117;DHT22;32591;48.102;11.772;2023-05-29T10:32:07;23.30;71.50
46117;DHT22;32591;48.102;11.772;2023-05-29T10:34:49;23.40;73.50
46117;DHT22;32591;48.102;11.772;2023-05-29T10:37:33;23.50;71.20
46117;DHT22;32591;48.102;11.772;2023-05-29T10:40:04;23.70;72.00
46117;DHT22;32591;48.102;11.772;2023-05-29T10:42:44;23.80;71.40
46117;DHT22;32591;48.102;11.772;2023-05-29T10:48:38;23.70;69.20
46117;DHT22;32591;48.102;11.772;2023-05-29T10:51:06;23.40;68.70
46117;DHT22;32591;48.102;11.772;2023-05-29T10:53:35;23.50;68.90
46117;DHT22;32591;48.102;11.772;2023-05-29T10:56:15;23.70;67.90
46117;DHT22;32591;48.102;11.772;2023-05-29T10:58:43;23.80;67.40
46117;DHT22;32591;48.102;11.772;2023-05-29T11:01:11;23.70;67.90
46117;DHT22;32591;48.102;11.772;2023-05-29T11:03:40;23.70;67.60
46117;DHT22;32591;48.102;11.772;2023-05-29T11:06:17;23.60;67.10
46117;DHT22;32591;48.102;11.772;2023-05-29T11:08:46;23.70;68.50
46117;DHT22;32591;48.102;11.772;2023-05-29T11:11:14;23.70;66.10
46117;DHT22;32591;48.102;11.772;2023-05-29T11:13:52;23.80;66.10
46117;DHT22;32591;48.102;11.772;2023-05-29T11:16:35;24.10;66.10
46117;DHT22;32591;48.102;11.772;2023-05-29T11:19:05;24.20;66.20
46117;DHT22;32591;48.102;11.772;2023-05-29T11:21:48;24.30;66.00
46117;DHT22;32591;48.102;11.772;2023-05-29T11:24:22;24.30;63.40
46117;DHT22;32591;48.102;11.772;2023-05-29T11:26:51;24.10;64.10
46117;DHT22;32591;48.102;11.772;2023-05-29T11:29:24;23.80;64.60
46117;DHT22;32591;48.102;11.772;2023-05-29T11:31:58;23.80;65.70
46117;DHT22;32591;48.102;11.772;2023-05-29T11:34:30;23.90;65.20
46117;DHT22;32591;48.102;11.772;2023-05-29T11:36:58;24.00;62.30
46117;DHT22;32591;48.102;11.772;2023-05-29T11:39:26;23.80;63.80
46117;DHT22;32591;48.102;11.772;2023-05-29T11:41:55;23.70;62.30
46117;DHT22;32591;48.102;11.772;2023-05-29T11:44:24;23.60;63.50
46117;DHT22;32591;48.102;11.772;2023-05-29T11:46:59;23.80;62.30
46117;DHT22;32591;48.102;11.772;2023-05-29T11:49:29;23.80;62.30
46117;DHT22;32591;48.102;11.772;2023-05-29T11:52:06;24.00;62.50
46117;DHT22;32591;48.102;11.772;2023-05-29T11:54:34;24.10;60.90
46117;DHT22;32591;48.102;11.772;2023-05-29T11:57:02;24.30;62.30
46117;DHT22;32591;48.102;11.772;2023-05-29T11:59:31;24.40;62.60
46117;DHT22;32591;48.102;11.772;2023-05-29T12:01:58;24.70;62.00
46117;DHT22;32591;48.102;11.772;2023-05-29T12:04:25;24.70;60.10
46117;DHT22;32591;48.102;11.772;2023-05-29T12:06:54;24.70;59.60
46117;DHT22;32591;48.102;11.772;2023-05-29T12:09:25;24.90;60.90
46117;DHT22;32591;48.102;11.772;2023-05-29T12:12:00;24.80;61.20
46117;DHT22;32591;48.102;11.772;2023-05-29T12:14:28;24.60;59.90
46117;DHT22;32591;48.102;11.772;2023-05-29T12:16:55;24.60;62.30
46117;DHT22;32591;48.102;11.772;2023-05-29T12:19:22;24.80;59.20
46117;DHT22;32591;48.102;11.772;2023-05-29T12:21:49;24.80;60.10
46117;DHT22;32591;48.102;11.772;2023-05-29T12:24:19;24.90;59.00
46117;DHT22;32591;48.102;11.772;2023-05-29T12:26:46;24.90;58.50
46117;DHT22;32591;48.102;11.772;2023-05-29T12:29:13;24.70;59.20
46117;DHT22;32591;48.102;11.772;2023-05-29T12:31:41;24.60;58.30
46117;DHT22;32591;48.102;11.772;2023-05-29T12:34:10;24.80;57.80
46117;DHT22;32591;48.102;11.772;2023-05-29T12:36:40;25.10;58.70
46117;DHT22;32591;48.102;11.772;2023-05-29T12:39:08;25.20;58.20
46117;DHT22;32591;48.102;11.772;2023-05-29T12:41:38;25.40;57.80
46117;DHT22;32591;48.102;11.772;2023-05-29T12:44:07;25.40;56.90
46117;DHT22;32591;48.102;11.772;2023-05-29T12:46:37;25.30;58.00
46117;DHT22;32591;48.102;11.772;2023-05-29T12:49:14;25.40;57.70
46117;DHT22;32591;48.102;11.772;2023-05-29T12:51:42;25.40;58.20
46117;DHT22;32591;48.102;11.772;2023-05-29T12:54:10;25.30;57.70
46117;DHT22;32591;48.102;11.772;2023-05-29T12:56:39;25.00;59.30
46117;DHT22;32591;48.102;11.772;2023-05-29T12:59:07;25.10;59.90
46117;DHT22;32591;48.102;11.772;2023-05-29T13:01:34;25.10;58.50
46117;DHT22;32591;48.102;11.772;2023-05-29T13:04:03;25.40;56.20
46117;DHT22;32591;48.102;11.772;2023-05-29T13:06:32;25.50;55.80
46117;DHT22;32591;48.102;11.772;2023-05-29T13:08:59;25.60;55.70
46117;DHT22;32591;48.102;11.772;2023-05-29T13:11:26;25.70;56.40
46117;DHT22;32591;48.102;11.772;2023-05-29T13:13:54;25.70;56.60
46117;DHT22;32591;48.102;11.772;2023-05-29T13:16:21;25.70;56.80
46117;DHT22;32591;48.102;11.772;2023-05-29T13:18:48;25.70;56.60
46117;DHT22;32591;48.102;11.772;2023-05-29T13:21:15;25.80;57.70
46117;DHT22;32591;48.102;11.772;2023-05-29T13:23:42;26.10;60.20
46117;DHT22;32591;48.102;11.772;2023-05-29T13:26:09;26.30;55.60
46117;DHT22;32591;48.102;11.772;2023-05-29T13:28:36;26.20;54.70
46117;DHT22;32591;48.102;11.772;2023-05-29T13:31:05;26.10;54.50
46117;DHT22;32591;48.102;11.772;2023-05-29T13:33:32;25.90;52.20
46117;DHT22;32591;48.102;11.772;2023-05-29T13:35:59;26.00;51.70
46117;DHT22;32591;48.102;11.772;2023-05-29T13:38:26;26.10;50.80
46117;DHT22;32591;48.102;11.772;2023-05-29T13:40:53;26.30;51.80
46117;DHT22;32591;48.102;11.772;2023-05-29T13:43:20;26.40;51.80
46117;DHT22;32591;48.102;11.772;2023-05-29T13:45:47;26.50;51.00
46117;DHT22;32591;48.102;11.772;2023-05-29T13:48:15;26.10;53.40
46117;DHT22;32591;48.102;11.772;2023-05-29T13:50:42;26.00;53.50
46117;DHT22;32591;48.102;11.772;2023-05-29T13:53:09;25.90;52.80
46117;DHT22;32591;48.102;11.772;2023-05-29T13:55:36;25.70;54.30
46117;DHT22;32591;48.102;11.772;2023-05-29T13:58:03;25.80;55.20
46117;DHT22;32591;48.102;11.772;2023-05-29T14:00:30;25.90;54.60
46117;DHT22;32591;48.102;11.772;2023-05-29T14:02:57;26.00;55.10
46117;DHT22;32591;48.102;11.772;2023-05-29T14:05:25;26.20;54.30
46117;DHT22;32591;48.102;11.772;2023-05-29T14:07:52;26.30;53.20
46117;DHT22;32591;48.102;11.772;2023-05-29T14:10:20;26.20;52.00
46117;DHT22;32591;48.102;11.772;2023-05-29T14:12:46;26.20;51.90
46117;DHT22;32591;48.102;11.772;2023-05-29T14:15:14;26.20;51.30
46117;DHT22;32591;48.102;11.772;2023-05-29T14:17:41;26.40;51.20
46117;DHT22;32591;48.102;11.772;2023-05-29T14:20:08;26.50;49.90
46117;DHT22;32591;48.102;11.772;2023-05-29T14:22:37;26.50;50.40
46117;DHT22;32591;48.102;11.772;2023-05-29T14:25:05;26.70;50.70
46117;DHT22;32591;48.102;11.772;2023-05-29T14:27:33;26.70;50.40
46117;DHT22;32591;48.102;11.772;2023-05-29T14:30:00;26.70;48.90
46117;DHT22;32591;48.102;11.772;2023-05-29T14:32:28;26.80;49.60
46117;DHT22;32591;48.102;11.772;2023-05-29T14:34:55;27.10;49.40
46117;DHT22;32591;48.102;11.772;2023-05-29T14:37:23;27.30;48.50
46117;DHT22;32591;48.102;11.772;2023-05-29T14:39:51;27.30;49.80
46117;DHT22;32591;48.102;11.772;2023-05-29T14:42:18;27.30;49.70
46117;DHT22;32591;48.102;11.772;2023-05-29T14:44:45;27.20;51.70
46117;DHT22;32591;48.102;11.772;2023-05-29T14:47:12;27.40;50.80
46117;DHT22;32591;48.102;11.772;2023-05-29T14:49:39;27.50;49.80
46117;DHT22;32591;48.102;11.772;2023-05-29T14:52:06;27.30;50.30
46117;DHT22;32591;48.102;11.772;2023-05-29T14:54:33;27.20;50.70
46117;DHT22;32591;48.102;11.772;2023-05-29T14:57:02;27.30;50.40
46117;DHT22;32591;48.102;11.772;2023-05-29T14:59:29;27.60;50.60
46117;DHT22;32591;48.102;11.772;2023-05-29T15:01:57;27.40;49.40
46117;DHT22;32591;48.102;11.772;2023-05-29T15:04:25;27.30;50.90
46117;DHT22;32591;48.102;11.772;2023-05-29T15:06:55;27.50;50.80
46117;DHT22;32591;48.102;11.772;2023-05-29T15:09:22;27.40;50.60
46117;DHT22;32591;48.102;11.772;2023-05-29T15:11:49;27.50;52.90
46117;DHT22;32591;48.102;11.772;2023-05-29T15:14:18;28.00;52.40
46117;DHT22;32591;48.102;11.772;2023-05-29T15:16:45;28.50;51.30
46117;DHT22;32591;48.102;11.772;2023-05-29T15:19:12;28.70;51.00
46117;DHT22;32591;48.102;11.772;2023-05-29T15:21:39;28.50;50.90
46117;DHT22;32591;48.102;11.772;2023-05-29T15:24:06;28.40;50.80
46117;DHT22;32591;48.102;11.772;2023-05-29T15:26:33;28.60;51.40